Accueil
METAR-TAF:

METAR-TAF

Aéroports :

Aéroport de Viterbe

Viterbe, Italie

latitude: 42-26N, longitude: 012-03E, altitude: 300 m

Observation

Le bulletin a été fait il y a 5 heures et 52 minutes, à 18:55 UTC
Vent 7 kt de sud-ouest
Température 24°C
Humidité 74%
Pression 1017 hPa
Visibilité 10 km ou plus
pas de nuages en-dessous de 1500 mètres et pas de cumulonimbus.

METAR: LIRV 031855Z 23007KT CAVOK 24/19 Q1017 RMK SKC MON E SE LIB NC VIS MIN 9999 WIND THR04 ///// KT BLU

Heure: 02:47 (00:47 UTC)

Prévision

Le bulletin a été fait il y a 10 heures et 47 minutes, à 14:00 UTC
Prévision valable du 03 à 15 UTC au 03 à 24 UTC
Vent 10 kt de sud-ouest
Visibilité 10 km ou plus
Nuages épars à une hauteur de 3000 ft

TAF: LIRV 031400Z 0315/0324 23010KT 9999 SCT030

Observations et prévisions météorologiques de plus de 4000 aéroports (messages METAR et TAF).

Les stations disponibles sont représentées par des disques jaunes et rouges sur la carte.

Passer la souris dessus pour voir le nom de la station.

Cliquer dessus pour voir les observations et prévisions météorologiques.

Pour changer de carte: cliquez sur les boutons verts avec une croix noire pour zoomer, sur le bouton vert avec un tiret pour effectuer un zoom arrière, ou sur les flèches vertes pour les cartes adjacentes.


METAR-TAF: